sensor_id;sensor_type;location;lat;lon;timestamp;P1;durP1;ratioP1;P2;durP2;ratioP2
49109;SDS011;34921;52.320;16.142;2022-08-19T00:00:14;17.07;;;12.40;;
49109;SDS011;34921;52.320;16.142;2022-08-19T00:03:01;14.85;;;11.20;;
49109;SDS011;34921;52.320;16.142;2022-08-19T00:05:27;16.67;;;11.30;;
49109;SDS011;34921;52.320;16.142;2022-08-19T00:07:54;12.68;;;11.35;;
49109;SDS011;34921;52.320;16.142;2022-08-19T00:10:20;14.15;;;12.37;;
49109;SDS011;34921;52.320;16.142;2022-08-19T00:12:46;13.83;;;12.10;;
49109;SDS011;34921;52.320;16.142;2022-08-19T00:15:14;16.50;;;11.77;;
49109;SDS011;34921;52.320;16.142;2022-08-19T00:17:42;15.27;;;13.03;;
49109;SDS011;34921;52.320;16.142;2022-08-19T00:20:11;13.43;;;12.03;;
49109;SDS011;34921;52.320;16.142;2022-08-19T00:22:39;14.40;;;12.60;;
49109;SDS011;34921;52.320;16.142;2022-08-19T00:25:07;16.60;;;12.73;;
49109;SDS011;34921;52.320;16.142;2022-08-19T00:27:33;14.45;;;12.05;;
49109;SDS011;34921;52.320;16.142;2022-08-19T00:30:00;14.80;;;12.37;;
49109;SDS011;34921;52.320;16.142;2022-08-19T00:32:29;18.67;;;12.75;;
49109;SDS011;34921;52.320;16.142;2022-08-19T00:34:56;14.80;;;13.20;;
49109;SDS011;34921;52.320;16.142;2022-08-19T00:37:22;15.15;;;12.73;;
49109;SDS011;34921;52.320;16.142;2022-08-19T00:39:51;14.73;;;11.30;;
49109;SDS011;34921;52.320;16.142;2022-08-19T00:42:19;14.58;;;12.23;;
49109;SDS011;34921;52.320;16.142;2022-08-19T00:44:46;15.80;;;12.85;;
49109;SDS011;34921;52.320;16.142;2022-08-19T00:47:13;17.85;;;13.93;;
49109;SDS011;34921;52.320;16.142;2022-08-19T00:49:40;20.80;;;16.35;;
49109;SDS011;34921;52.320;16.142;2022-08-19T00:52:12;18.57;;;16.27;;
49109;SDS011;34921;52.320;16.142;2022-08-19T00:54:43;15.70;;;13.78;;
49109;SDS011;34921;52.320;16.142;2022-08-19T00:57:12;19.12;;;14.18;;
49109;SDS011;34921;52.320;16.142;2022-08-19T00:59:42;17.45;;;13.50;;
49109;SDS011;34921;52.320;16.142;2022-08-19T01:02:11;16.97;;;13.98;;
49109;SDS011;34921;52.320;16.142;2022-08-19T01:04:38;14.70;;;13.15;;
49109;SDS011;34921;52.320;16.142;2022-08-19T01:07:04;18.30;;;13.93;;
49109;SDS011;34921;52.320;16.142;2022-08-19T01:09:30;17.42;;;13.80;;
49109;SDS011;34921;52.320;16.142;2022-08-19T01:11:56;15.15;;;12.60;;
49109;SDS011;34921;52.320;16.142;2022-08-19T01:14:22;15.70;;;12.98;;
49109;SDS011;34921;52.320;16.142;2022-08-19T01:16:49;18.13;;;13.00;;
49109;SDS011;34921;52.320;16.142;2022-08-19T01:19:26;16.12;;;13.25;;
49109;SDS011;34921;52.320;16.142;2022-08-19T01:21:55;20.10;;;13.18;;
49109;SDS011;34921;52.320;16.142;2022-08-19T01:24:28;15.83;;;12.90;;
49109;SDS011;34921;52.320;16.142;2022-08-19T01:26:56;20.12;;;14.35;;
49109;SDS011;34921;52.320;16.142;2022-08-19T01:29:22;17.25;;;14.53;;
49109;SDS011;34921;52.320;16.142;2022-08-19T01:31:49;18.67;;;14.10;;
49109;SDS011;34921;52.320;16.142;2022-08-19T01:34:18;16.48;;;13.32;;
49109;SDS011;34921;52.320;16.142;2022-08-19T01:36:45;18.80;;;13.50;;
49109;SDS011;34921;52.320;16.142;2022-08-19T01:39:16;16.80;;;13.30;;
49109;SDS011;34921;52.320;16.142;2022-08-19T01:41:46;14.85;;;11.88;;
49109;SDS011;34921;52.320;16.142;2022-08-19T01:44:12;19.05;;;12.58;;
49109;SDS011;34921;52.320;16.142;2022-08-19T01:46:39;19.67;;;12.82;;
49109;SDS011;34921;52.320;16.142;2022-08-19T01:49:06;17.10;;;13.10;;
49109;SDS011;34921;52.320;16.142;2022-08-19T01:51:33;19.07;;;13.18;;
49109;SDS011;34921;52.320;16.142;2022-08-19T01:54:00;16.45;;;13.05;;
49109;SDS011;34921;52.320;16.142;2022-08-19T01:56:26;17.67;;;12.73;;
49109;SDS011;34921;52.320;16.142;2022-08-19T01:58:57;15.35;;;13.22;;
49109;SDS011;34921;52.320;16.142;2022-08-19T02:01:26;15.45;;;12.23;;
49109;SDS011;34921;52.320;16.142;2022-08-19T02:03:52;17.27;;;12.85;;
49109;SDS011;34921;52.320;16.142;2022-08-19T02:06:20;16.25;;;12.82;;
49109;SDS011;34921;52.320;16.142;2022-08-19T02:08:46;14.75;;;11.93;;
49109;SDS011;34921;52.320;16.142;2022-08-19T02:11:21;16.25;;;12.95;;
49109;SDS011;34921;52.320;16.142;2022-08-19T02:13:49;15.30;;;12.45;;
49109;SDS011;34921;52.320;16.142;2022-08-19T02:16:16;16.23;;;12.73;;
49109;SDS011;34921;52.320;16.142;2022-08-19T02:18:43;15.72;;;13.45;;
49109;SDS011;34921;52.320;16.142;2022-08-19T02:21:09;20.08;;;13.62;;
49109;SDS011;34921;52.320;16.142;2022-08-19T02:23:36;17.73;;;13.17;;
49109;SDS011;34921;52.320;16.142;2022-08-19T02:26:02;16.75;;;13.53;;
49109;SDS011;34921;52.320;16.142;2022-08-19T02:28:28;16.32;;;14.00;;
49109;SDS011;34921;52.320;16.142;2022-08-19T02:30:54;14.95;;;13.40;;
49109;SDS011;34921;52.320;16.142;2022-08-19T02:33:20;19.70;;;13.08;;
49109;SDS011;34921;52.320;16.142;2022-08-19T02:35:47;15.55;;;13.10;;
49109;SDS011;34921;52.320;16.142;2022-08-19T02:38:13;19.17;;;13.13;;
49109;SDS011;34921;52.320;16.142;2022-08-19T02:40:56;21.07;;;13.32;;
49109;SDS011;34921;52.320;16.142;2022-08-19T02:43:24;15.90;;;13.43;;
49109;SDS011;34921;52.320;16.142;2022-08-19T02:45:51;15.60;;;13.62;;
49109;SDS011;34921;52.320;16.142;2022-08-19T02:48:18;17.43;;;13.63;;
49109;SDS011;34921;52.320;16.142;2022-08-19T02:50:47;15.38;;;13.48;;
49109;SDS011;34921;52.320;16.142;2022-08-19T02:53:16;19.40;;;13.45;;
49109;SDS011;34921;52.320;16.142;2022-08-19T02:55:46;17.05;;;12.30;;
49109;SDS011;34921;52.320;16.142;2022-08-19T02:58:12;16.30;;;12.88;;
49109;SDS011;34921;52.320;16.142;2022-08-19T03:00:43;15.00;;;12.85;;
49109;SDS011;34921;52.320;16.142;2022-08-19T03:03:11;20.77;;;13.40;;
49109;SDS011;34921;52.320;16.142;2022-08-19T03:05:37;16.48;;;13.45;;
49109;SDS011;34921;52.320;16.142;2022-08-19T03:08:04;14.73;;;13.18;;
49109;SDS011;34921;52.320;16.142;2022-08-19T03:10:32;15.90;;;13.68;;
49109;SDS011;34921;52.320;16.142;2022-08-19T03:12:58;14.47;;;12.98;;
49109;SDS011;34921;52.320;16.142;2022-08-19T03:15:24;15.43;;;13.00;;
49109;SDS011;34921;52.320;16.142;2022-08-19T03:17:50;14.75;;;12.65;;
49109;SDS011;34921;52.320;16.142;2022-08-19T03:20:16;18.55;;;13.30;;
49109;SDS011;34921;52.320;16.142;2022-08-19T03:22:43;20.73;;;14.60;;
49109;SDS011;34921;52.320;16.142;2022-08-19T03:25:09;17.02;;;13.38;;
49109;SDS011;34921;52.320;16.142;2022-08-19T03:27:35;16.35;;;13.90;;
49109;SDS011;34921;52.320;16.142;2022-08-19T03:30:01;15.83;;;13.72;;
49109;SDS011;34921;52.320;16.142;2022-08-19T03:32:28;16.33;;;12.93;;
49109;SDS011;34921;52.320;16.142;2022-08-19T03:34:54;15.10;;;12.65;;
49109;SDS011;34921;52.320;16.142;2022-08-19T03:37:20;19.07;;;13.18;;
49109;SDS011;34921;52.320;16.142;2022-08-19T03:39:47;16.20;;;13.07;;
49109;SDS011;34921;52.320;16.142;2022-08-19T03:42:13;15.60;;;13.10;;
49109;SDS011;34921;52.320;16.142;2022-08-19T03:44:39;17.45;;;13.22;;
49109;SDS011;34921;52.320;16.142;2022-08-19T03:47:07;19.87;;;13.60;;
49109;SDS011;34921;52.320;16.142;2022-08-19T03:49:33;15.35;;;13.10;;
49109;SDS011;34921;52.320;16.142;2022-08-19T03:52:00;17.95;;;13.35;;
49109;SDS011;34921;52.320;16.142;2022-08-19T03:54:27;17.32;;;12.47;;
49109;SDS011;34921;52.320;16.142;2022-08-19T03:56:54;14.83;;;12.60;;
49109;SDS011;34921;52.320;16.142;2022-08-19T03:59:27;16.93;;;13.80;;
49109;SDS011;34921;52.320;16.142;2022-08-19T04:01:58;16.70;;;13.28;;
49109;SDS011;34921;52.320;16.142;2022-08-19T04:04:25;16.87;;;13.03;;
49109;SDS011;34921;52.320;16.142;2022-08-19T04:06:52;18.80;;;14.03;;
49109;SDS011;34921;52.320;16.142;2022-08-19T04:09:18;16.17;;;11.88;;
49109;SDS011;34921;52.320;16.142;2022-08-19T04:11:47;14.00;;;12.13;;
49109;SDS011;34921;52.320;16.142;2022-08-19T04:14:20;17.15;;;12.13;;
49109;SDS011;34921;52.320;16.142;2022-08-19T04:19:16;19.37;;;13.55;;
49109;SDS011;34921;52.320;16.142;2022-08-19T04:21:44;15.15;;;12.50;;
49109;SDS011;34921;52.320;16.142;2022-08-19T04:24:12;14.55;;;12.33;;
49109;SDS011;34921;52.320;16.142;2022-08-19T04:26:39;15.72;;;12.35;;
49109;SDS011;34921;52.320;16.142;2022-08-19T04:29:07;15.50;;;12.58;;
49109;SDS011;34921;52.320;16.142;2022-08-19T04:31:36;14.73;;;11.70;;
49109;SDS011;34921;52.320;16.142;2022-08-19T04:34:03;13.62;;;11.12;;
49109;SDS011;34921;52.320;16.142;2022-08-19T04:36:35;17.05;;;12.40;;
49109;SDS011;34921;52.320;16.142;2022-08-19T04:39:04;17.77;;;12.30;;
49109;SDS011;34921;52.320;16.142;2022-08-19T04:41:32;13.90;;;11.68;;
49109;SDS011;34921;52.320;16.142;2022-08-19T04:44:17;14.95;;;12.30;;
49109;SDS011;34921;52.320;16.142;2022-08-19T04:46:44;17.20;;;12.25;;
49109;SDS011;34921;52.320;16.142;2022-08-19T04:49:13;17.25;;;11.45;;
49109;SDS011;34921;52.320;16.142;2022-08-19T04:51:41;16.70;;;11.18;;
49109;SDS011;34921;52.320;16.142;2022-08-19T04:54:09;16.05;;;12.07;;
49109;SDS011;34921;52.320;16.142;2022-08-19T04:56:35;16.35;;;11.50;;
49109;SDS011;34921;52.320;16.142;2022-08-19T04:59:01;17.12;;;11.50;;
49109;SDS011;34921;52.320;16.142;2022-08-19T05:01:31;19.65;;;11.85;;
49109;SDS011;34921;52.320;16.142;2022-08-19T05:04:02;15.75;;;11.83;;
49109;SDS011;34921;52.320;16.142;2022-08-19T05:06:31;18.25;;;12.30;;
49109;SDS011;34921;52.320;16.142;2022-08-19T05:09:02;17.67;;;11.75;;
49109;SDS011;34921;52.320;16.142;2022-08-19T05:11:31;14.97;;;10.57;;
49109;SDS011;34921;52.320;16.142;2022-08-19T05:14:04;16.90;;;11.53;;
49109;SDS011;34921;52.320;16.142;2022-08-19T05:16:34;13.85;;;11.65;;
49109;SDS011;34921;52.320;16.142;2022-08-19T05:19:00;15.68;;;12.40;;
49109;SDS011;34921;52.320;16.142;2022-08-19T05:21:45;15.23;;;12.15;;
49109;SDS011;34921;52.320;16.142;2022-08-19T05:24:30;17.07;;;12.30;;
49109;SDS011;34921;52.320;16.142;2022-08-19T05:27:00;15.90;;;12.10;;
49109;SDS011;34921;52.320;16.142;2022-08-19T05:29:28;14.60;;;11.60;;
49109;SDS011;34921;52.320;16.142;2022-08-19T05:31:57;16.05;;;11.78;;
49109;SDS011;34921;52.320;16.142;2022-08-19T05:34:24;14.95;;;11.78;;
49109;SDS011;34921;52.320;16.142;2022-08-19T05:36:54;16.35;;;12.70;;
49109;SDS011;34921;52.320;16.142;2022-08-19T05:39:24;15.45;;;11.68;;
49109;SDS011;34921;52.320;16.142;2022-08-19T05:41:54;18.40;;;12.35;;
49109;SDS011;34921;52.320;16.142;2022-08-19T05:44:23;17.17;;;12.80;;
49109;SDS011;34921;52.320;16.142;2022-08-19T05:46:51;17.02;;;12.23;;
49109;SDS011;34921;52.320;16.142;2022-08-19T05:49:19;14.97;;;11.40;;
49109;SDS011;34921;52.320;16.142;2022-08-19T05:51:47;14.53;;;11.25;;
49109;SDS011;34921;52.320;16.142;2022-08-19T05:54:14;14.37;;;11.53;;
49109;SDS011;34921;52.320;16.142;2022-08-19T05:56:40;13.75;;;11.30;;
49109;SDS011;34921;52.320;16.142;2022-08-19T05:59:07;15.80;;;12.00;;
49109;SDS011;34921;52.320;16.142;2022-08-19T06:01:40;14.05;;;12.58;;
49109;SDS011;34921;52.320;16.142;2022-08-19T06:04:08;16.17;;;11.68;;
49109;SDS011;34921;52.320;16.142;2022-08-19T06:06:35;14.23;;;11.88;;
49109;SDS011;34921;52.320;16.142;2022-08-19T06:09:05;16.07;;;12.90;;
49109;SDS011;34921;52.320;16.142;2022-08-19T06:11:37;14.40;;;11.55;;
49109;SDS011;34921;52.320;16.142;2022-08-19T06:14:09;15.32;;;12.43;;
49109;SDS011;34921;52.320;16.142;2022-08-19T06:16:39;14.63;;;11.93;;
49109;SDS011;34921;52.320;16.142;2022-08-19T06:19:08;16.73;;;11.08;;
49109;SDS011;34921;52.320;16.142;2022-08-19T06:21:36;15.70;;;11.60;;
49109;SDS011;34921;52.320;16.142;2022-08-19T06:24:04;15.10;;;13.08;;
49109;SDS011;34921;52.320;16.142;2022-08-19T06:26:33;12.82;;;11.25;;
49109;SDS011;34921;52.320;16.142;2022-08-19T06:29:01;14.00;;;11.88;;
49109;SDS011;34921;52.320;16.142;2022-08-19T06:31:30;15.13;;;11.65;;
49109;SDS011;34921;52.320;16.142;2022-08-19T06:34:03;13.53;;;12.10;;
49109;SDS011;34921;52.320;16.142;2022-08-19T06:36:32;16.07;;;12.65;;
49109;SDS011;34921;52.320;16.142;2022-08-19T06:41:27;13.35;;;11.20;;
49109;SDS011;34921;52.320;16.142;2022-08-19T06:43:54;13.50;;;11.67;;
49109;SDS011;34921;52.320;16.142;2022-08-19T06:46:21;16.10;;;11.40;;
49109;SDS011;34921;52.320;16.142;2022-08-19T06:48:47;17.02;;;11.40;;
49109;SDS011;34921;52.320;16.142;2022-08-19T06:51:15;16.23;;;11.83;;
49109;SDS011;34921;52.320;16.142;2022-08-19T06:53:47;14.70;;;11.45;;
49109;SDS011;34921;52.320;16.142;2022-08-19T06:56:16;15.65;;;11.35;;
49109;SDS011;34921;52.320;16.142;2022-08-19T06:58:43;17.77;;;11.08;;
49109;SDS011;34921;52.320;16.142;2022-08-19T07:01:10;14.93;;;11.57;;
49109;SDS011;34921;52.320;16.142;2022-08-19T07:03:36;13.62;;;11.68;;
49109;SDS011;34921;52.320;16.142;2022-08-19T07:06:05;14.18;;;12.10;;
49109;SDS011;34921;52.320;16.142;2022-08-19T07:08:33;15.55;;;10.80;;
49109;SDS011;34921;52.320;16.142;2022-08-19T07:11:05;14.43;;;10.87;;
49109;SDS011;34921;52.320;16.142;2022-08-19T07:13:33;12.95;;;11.12;;
49109;SDS011;34921;52.320;16.142;2022-08-19T07:16:06;12.90;;;11.53;;
49109;SDS011;34921;52.320;16.142;2022-08-19T07:18:34;13.83;;;11.18;;
49109;SDS011;34921;52.320;16.142;2022-08-19T07:21:11;14.43;;;11.30;;
49109;SDS011;34921;52.320;16.142;2022-08-19T07:23:39;12.50;;;11.20;;
49109;SDS011;34921;52.320;16.142;2022-08-19T07:26:06;13.75;;;11.48;;
49109;SDS011;34921;52.320;16.142;2022-08-19T07:28:33;14.65;;;11.22;;
49109;SDS011;34921;52.320;16.142;2022-08-19T07:31:00;12.98;;;11.35;;
49109;SDS011;34921;52.320;16.142;2022-08-19T07:33:27;12.53;;;11.27;;
49109;SDS011;34921;52.320;16.142;2022-08-19T07:35:55;14.13;;;11.27;;
49109;SDS011;34921;52.320;16.142;2022-08-19T07:38:21;15.47;;;11.60;;
49109;SDS011;34921;52.320;16.142;2022-08-19T07:40:47;15.55;;;11.50;;
49109;SDS011;34921;52.320;16.142;2022-08-19T07:43:14;17.02;;;11.85;;
49109;SDS011;34921;52.320;16.142;2022-08-19T07:45:40;16.13;;;12.10;;
49109;SDS011;34921;52.320;16.142;2022-08-19T07:48:08;16.45;;;12.85;;
49109;SDS011;34921;52.320;16.142;2022-08-19T07:50:34;17.00;;;11.97;;
49109;SDS011;34921;52.320;16.142;2022-08-19T07:53:00;16.30;;;12.88;;
49109;SDS011;34921;52.320;16.142;2022-08-19T07:55:26;15.03;;;12.28;;
49109;SDS011;34921;52.320;16.142;2022-08-19T07:57:52;14.03;;;12.70;;
49109;SDS011;34921;52.320;16.142;2022-08-19T08:00:19;14.03;;;12.53;;
49109;SDS011;34921;52.320;16.142;2022-08-19T08:02:45;15.25;;;12.15;;
49109;SDS011;34921;52.320;16.142;2022-08-19T08:05:11;13.78;;;12.03;;
49109;SDS011;34921;52.320;16.142;2022-08-19T08:07:56;14.75;;;13.22;;
49109;SDS011;34921;52.320;16.142;2022-08-19T08:10:41;14.38;;;12.88;;
49109;SDS011;34921;52.320;16.142;2022-08-19T08:13:07;14.87;;;11.57;;
49109;SDS011;34921;52.320;16.142;2022-08-19T08:15:33;16.32;;;12.70;;
49109;SDS011;34921;52.320;16.142;2022-08-19T08:17:59;12.87;;;11.43;;
49109;SDS011;34921;52.320;16.142;2022-08-19T08:20:26;13.98;;;12.63;;
49109;SDS011;34921;52.320;16.142;2022-08-19T08:22:52;14.78;;;11.85;;
49109;SDS011;34921;52.320;16.142;2022-08-19T08:25:37;15.28;;;12.73;;
49109;SDS011;34921;52.320;16.142;2022-08-19T08:28:04;14.93;;;12.18;;
49109;SDS011;34921;52.320;16.142;2022-08-19T08:30:30;15.65;;;12.10;;
49109;SDS011;34921;52.320;16.142;2022-08-19T08:32:58;16.05;;;12.37;;
49109;SDS011;34921;52.320;16.142;2022-08-19T08:35:25;15.23;;;12.20;;
49109;SDS011;34921;52.320;16.142;2022-08-19T08:37:52;14.40;;;12.10;;
49109;SDS011;34921;52.320;16.142;2022-08-19T08:43:11;15.05;;;12.30;;
49109;SDS011;34921;52.320;16.142;2022-08-19T08:45:44;12.80;;;11.53;;
49109;SDS011;34921;52.320;16.142;2022-08-19T08:48:19;14.10;;;11.73;;
49109;SDS011;34921;52.320;16.142;2022-08-19T08:50:49;13.98;;;11.88;;
49109;SDS011;34921;52.320;16.142;2022-08-19T08:53:19;14.03;;;12.47;;
49109;SDS011;34921;52.320;16.142;2022-08-19T08:55:45;13.00;;;11.60;;
49109;SDS011;34921;52.320;16.142;2022-08-19T08:58:13;15.18;;;11.60;;
49109;SDS011;34921;52.320;16.142;2022-08-19T09:00:44;12.88;;;11.35;;
49109;SDS011;34921;52.320;16.142;2022-08-19T09:03:18;14.15;;;11.45;;
49109;SDS011;34921;52.320;16.142;2022-08-19T09:08:36;14.47;;;11.28;;
49109;SDS011;34921;52.320;16.142;2022-08-19T09:17:20;14.83;;;11.35;;
49109;SDS011;34921;52.320;16.142;2022-08-19T09:20:08;13.75;;;10.45;;
49109;SDS011;34921;52.320;16.142;2022-08-19T09:25:17;13.17;;;11.30;;
49109;SDS011;34921;52.320;16.142;2022-08-19T09:27:47;11.40;;;10.28;;
49109;SDS011;34921;52.320;16.142;2022-08-19T09:30:16;12.07;;;10.58;;
49109;SDS011;34921;52.320;16.142;2022-08-19T09:32:45;12.80;;;10.63;;
49109;SDS011;34921;52.320;16.142;2022-08-19T09:35:11;12.28;;;10.30;;
49109;SDS011;34921;52.320;16.142;2022-08-19T09:37:39;13.22;;;10.05;;
49109;SDS011;34921;52.320;16.142;2022-08-19T09:40:06;12.68;;;9.55;;
49109;SDS011;34921;52.320;16.142;2022-08-19T09:42:33;9.88;;;8.88;;
49109;SDS011;34921;52.320;16.142;2022-08-19T09:45:00;10.15;;;9.08;;
49109;SDS011;34921;52.320;16.142;2022-08-19T09:47:26;10.15;;;8.58;;
49109;SDS011;34921;52.320;16.142;2022-08-19T09:49:52;11.45;;;8.75;;
49109;SDS011;34921;52.320;16.142;2022-08-19T09:52:18;12.33;;;8.90;;
49109;SDS011;34921;52.320;16.142;2022-08-19T09:54:45;14.33;;;8.93;;
49109;SDS011;34921;52.320;16.142;2022-08-19T09:57:11;10.43;;;8.70;;
49109;SDS011;34921;52.320;16.142;2022-08-19T09:59:38;12.83;;;8.80;;
49109;SDS011;34921;52.320;16.142;2022-08-19T10:02:05;11.73;;;8.65;;
49109;SDS011;34921;52.320;16.142;2022-08-19T10:04:31;11.90;;;7.85;;
49109;SDS011;34921;52.320;16.142;2022-08-19T10:07:16;9.90;;;7.78;;
49109;SDS011;34921;52.320;16.142;2022-08-19T10:09:42;10.28;;;8.28;;
49109;SDS011;34921;52.320;16.142;2022-08-19T10:12:08;11.05;;;8.35;;
49109;SDS011;34921;52.320;16.142;2022-08-19T10:14:34;8.95;;;8.03;;
49109;SDS011;34921;52.320;16.142;2022-08-19T10:17:02;11.28;;;8.53;;
49109;SDS011;34921;52.320;16.142;2022-08-19T10:19:28;11.80;;;8.58;;
49109;SDS011;34921;52.320;16.142;2022-08-19T10:22:05;13.30;;;9.83;;
49109;SDS011;34921;52.320;16.142;2022-08-19T10:24:33;11.53;;;9.78;;
49109;SDS011;34921;52.320;16.142;2022-08-19T10:27:00;11.37;;;8.90;;
49109;SDS011;34921;52.320;16.142;2022-08-19T10:29:29;10.30;;;8.70;;
49109;SDS011;34921;52.320;16.142;2022-08-19T10:31:58;10.80;;;9.00;;
49109;SDS011;34921;52.320;16.142;2022-08-19T10:34:26;10.77;;;9.40;;
49109;SDS011;34921;52.320;16.142;2022-08-19T10:36:53;11.20;;;9.47;;
49109;SDS011;34921;52.320;16.142;2022-08-19T10:39:19;13.50;;;9.93;;
49109;SDS011;34921;52.320;16.142;2022-08-19T10:41:45;12.68;;;10.18;;
49109;SDS011;34921;52.320;16.142;2022-08-19T10:44:12;10.55;;;9.40;;
49109;SDS011;34921;52.320;16.142;2022-08-19T10:46:40;10.55;;;9.55;;
49109;SDS011;34921;52.320;16.142;2022-08-19T10:49:08;11.10;;;9.78;;
49109;SDS011;34921;52.320;16.142;2022-08-19T10:51:35;12.47;;;10.38;;
49109;SDS011;34921;52.320;16.142;2022-08-19T10:54:20;13.13;;;11.50;;
49109;SDS011;34921;52.320;16.142;2022-08-19T10:56:46;14.87;;;12.07;;
49109;SDS011;34921;52.320;16.142;2022-08-19T10:59:20;12.10;;;11.03;;
49109;SDS011;34921;52.320;16.142;2022-08-19T11:01:52;13.70;;;12.30;;
49109;SDS011;34921;52.320;16.142;2022-08-19T11:04:18;13.85;;;12.45;;
49109;SDS011;34921;52.320;16.142;2022-08-19T11:06:45;14.20;;;12.68;;
49109;SDS011;34921;52.320;16.142;2022-08-19T11:09:13;14.38;;;12.28;;
49109;SDS011;34921;52.320;16.142;2022-08-19T11:11:41;15.05;;;13.35;;
49109;SDS011;34921;52.320;16.142;2022-08-19T11:14:08;16.13;;;12.47;;
49109;SDS011;34921;52.320;16.142;2022-08-19T11:16:37;15.53;;;13.23;;
49109;SDS011;34921;52.320;16.142;2022-08-19T11:19:05;17.67;;;13.48;;
49109;SDS011;34921;52.320;16.142;2022-08-19T11:21:35;15.73;;;14.13;;
49109;SDS011;34921;52.320;16.142;2022-08-19T11:24:04;16.37;;;14.57;;
49109;SDS011;34921;52.320;16.142;2022-08-19T11:26:33;15.28;;;13.70;;
49109;SDS011;34921;52.320;16.142;2022-08-19T11:29:00;17.40;;;14.43;;
49109;SDS011;34921;52.320;16.142;2022-08-19T11:31:28;16.65;;;14.95;;
49109;SDS011;34921;52.320;16.142;2022-08-19T11:33:57;17.15;;;15.30;;
49109;SDS011;34921;52.320;16.142;2022-08-19T11:36:25;16.62;;;14.70;;
49109;SDS011;34921;52.320;16.142;2022-08-19T11:38:52;17.82;;;15.35;;
49109;SDS011;34921;52.320;16.142;2022-08-19T11:41:19;17.63;;;15.73;;
49109;SDS011;34921;52.320;16.142;2022-08-19T11:43:49;19.05;;;15.78;;
49109;SDS011;34921;52.320;16.142;2022-08-19T11:46:18;20.50;;;15.60;;
49109;SDS011;34921;52.320;16.142;2022-08-19T11:48:44;17.05;;;15.35;;
49109;SDS011;34921;52.320;16.142;2022-08-19T11:51:12;17.55;;;15.70;;
49109;SDS011;34921;52.320;16.142;2022-08-19T11:53:40;17.73;;;15.93;;
49109;SDS011;34921;52.320;16.142;2022-08-19T11:56:07;17.82;;;16.02;;
49109;SDS011;34921;52.320;16.142;2022-08-19T11:58:34;17.65;;;15.85;;
49109;SDS011;34921;52.320;16.142;2022-08-19T12:01:04;17.80;;;16.00;;
49109;SDS011;34921;52.320;16.142;2022-08-19T12:03:32;17.45;;;15.65;;
49109;SDS011;34921;52.320;16.142;2022-08-19T12:06:03;18.75;;;16.20;;
49109;SDS011;34921;52.320;16.142;2022-08-19T12:08:34;17.82;;;15.90;;
49109;SDS011;34921;52.320;16.142;2022-08-19T12:11:00;16.45;;;14.75;;
49109;SDS011;34921;52.320;16.142;2022-08-19T12:13:28;17.25;;;15.53;;
49109;SDS011;34921;52.320;16.142;2022-08-19T12:15:55;17.55;;;15.65;;
49109;SDS011;34921;52.320;16.142;2022-08-19T12:18:22;18.07;;;16.23;;
49109;SDS011;34921;52.320;16.142;2022-08-19T12:20:50;17.70;;;15.18;;
49109;SDS011;34921;52.320;16.142;2022-08-19T12:23:17;15.83;;;14.23;;
49109;SDS011;34921;52.320;16.142;2022-08-19T12:25:44;14.68;;;13.08;;
49109;SDS011;34921;52.320;16.142;2022-08-19T12:28:20;14.60;;;12.90;;
49109;SDS011;34921;52.320;16.142;2022-08-19T12:30:49;14.00;;;12.60;;
49109;SDS011;34921;52.320;16.142;2022-08-19T12:33:17;15.30;;;12.17;;
49109;SDS011;34921;52.320;16.142;2022-08-19T12:35:45;15.27;;;12.13;;
49109;SDS011;34921;52.320;16.142;2022-08-19T12:38:12;13.28;;;11.97;;
49109;SDS011;34921;52.320;16.142;2022-08-19T12:40:40;12.75;;;11.25;;
49109;SDS011;34921;52.320;16.142;2022-08-19T12:43:07;13.18;;;11.75;;
49109;SDS011;34921;52.320;16.142;2022-08-19T12:45:34;11.88;;;10.70;;
49109;SDS011;34921;52.320;16.142;2022-08-19T12:48:00;12.43;;;10.90;;
49109;SDS011;34921;52.320;16.142;2022-08-19T12:50:26;13.57;;;10.90;;
49109;SDS011;34921;52.320;16.142;2022-08-19T12:52:52;12.47;;;11.18;;
49109;SDS011;34921;52.320;16.142;2022-08-19T12:55:19;11.85;;;10.58;;
49109;SDS011;34921;52.320;16.142;2022-08-19T12:57:45;11.33;;;10.08;;
49109;SDS011;34921;52.320;16.142;2022-08-19T13:00:12;14.28;;;10.95;;
49109;SDS011;34921;52.320;16.142;2022-08-19T13:02:44;11.65;;;10.32;;
49109;SDS011;34921;52.320;16.142;2022-08-19T13:05:14;11.60;;;10.40;;
49109;SDS011;34921;52.320;16.142;2022-08-19T13:07:41;12.85;;;10.23;;
49109;SDS011;34921;52.320;16.142;2022-08-19T13:10:10;12.50;;;10.18;;
49109;SDS011;34921;52.320;16.142;2022-08-19T13:12:42;12.73;;;10.05;;
49109;SDS011;34921;52.320;16.142;2022-08-19T13:15:09;12.28;;;9.70;;
49109;SDS011;34921;52.320;16.142;2022-08-19T13:17:36;14.00;;;10.13;;
49109;SDS011;34921;52.320;16.142;2022-08-19T13:20:02;13.05;;;10.55;;
49109;SDS011;34921;52.320;16.142;2022-08-19T13:22:30;12.50;;;10.70;;
49109;SDS011;34921;52.320;16.142;2022-08-19T13:24:57;12.37;;;10.93;;
49109;SDS011;34921;52.320;16.142;2022-08-19T13:27:23;12.10;;;10.80;;
49109;SDS011;34921;52.320;16.142;2022-08-19T13:29:49;14.00;;;10.53;;
49109;SDS011;34921;52.320;16.142;2022-08-19T13:32:34;11.68;;;10.13;;
49109;SDS011;34921;52.320;16.142;2022-08-19T13:35:19;14.67;;;11.03;;
49109;SDS011;34921;52.320;16.142;2022-08-19T13:37:46;13.40;;;12.00;;
49109;SDS011;34921;52.320;16.142;2022-08-19T13:42:44;14.60;;;13.10;;
49109;SDS011;34921;52.320;16.142;2022-08-19T13:45:13;13.15;;;11.80;;
49109;SDS011;34921;52.320;16.142;2022-08-19T13:47:41;14.73;;;13.07;;
49109;SDS011;34921;52.320;16.142;2022-08-19T13:50:11;16.67;;;13.83;;
49109;SDS011;34921;52.320;16.142;2022-08-19T13:52:39;16.45;;;14.07;;
49109;SDS011;34921;52.320;16.142;2022-08-19T13:55:06;15.50;;;13.80;;
49109;SDS011;34921;52.320;16.142;2022-08-19T13:57:33;17.43;;;15.60;;
49109;SDS011;34921;52.320;16.142;2022-08-19T14:00:00;17.60;;;14.87;;
49109;SDS011;34921;52.320;16.142;2022-08-19T14:02:27;19.27;;;15.75;;
49109;SDS011;34921;52.320;16.142;2022-08-19T14:04:53;19.70;;;16.17;;
49109;SDS011;34921;52.320;16.142;2022-08-19T14:07:20;18.70;;;16.77;;
49109;SDS011;34921;52.320;16.142;2022-08-19T14:09:49;18.20;;;16.20;;
49109;SDS011;34921;52.320;16.142;2022-08-19T14:12:19;18.77;;;16.40;;
49109;SDS011;34921;52.320;16.142;2022-08-19T14:17:13;18.95;;;16.62;;
49109;SDS011;34921;52.320;16.142;2022-08-19T14:19:40;19.10;;;17.07;;
49109;SDS011;34921;52.320;16.142;2022-08-19T14:22:07;19.02;;;17.02;;
49109;SDS011;34921;52.320;16.142;2022-08-19T14:24:34;19.60;;;17.60;;
49109;SDS011;34921;52.320;16.142;2022-08-19T14:27:00;20.72;;;17.05;;
49109;SDS011;34921;52.320;16.142;2022-08-19T14:29:26;19.92;;;17.75;;
49109;SDS011;34921;52.320;16.142;2022-08-19T14:31:54;20.25;;;18.07;;
49109;SDS011;34921;52.320;16.142;2022-08-19T14:34:25;19.45;;;17.45;;
49109;SDS011;34921;52.320;16.142;2022-08-19T14:36:52;22.48;;;17.75;;
49109;SDS011;34921;52.320;16.142;2022-08-19T14:39:19;20.12;;;17.40;;
49109;SDS011;34921;52.320;16.142;2022-08-19T14:41:45;19.63;;;17.43;;